sensor_id;sensor_type;location;lat;lon;timestamp;P1;durP1;ratioP1;P2;durP2;ratioP2
43650;SDS011;29247;50.944;5.382;2022-07-01T00:01:16;8.98;;;4.28;;
43650;SDS011;29247;50.944;5.382;2022-07-01T00:03:44;9.75;;;4.40;;
43650;SDS011;29247;50.944;5.382;2022-07-01T00:06:19;10.90;;;4.63;;
43650;SDS011;29247;50.944;5.382;2022-07-01T00:08:50;12.75;;;5.00;;
43650;SDS011;29247;50.944;5.382;2022-07-01T00:11:18;7.55;;;4.20;;
43650;SDS011;29247;50.944;5.382;2022-07-01T00:13:46;7.63;;;4.40;;
43650;SDS011;29247;50.944;5.382;2022-07-01T00:16:12;10.23;;;5.22;;
43650;SDS011;29247;50.944;5.382;2022-07-01T00:18:40;8.82;;;4.35;;
43650;SDS011;29247;50.944;5.382;2022-07-01T00:21:08;8.98;;;4.78;;
43650;SDS011;29247;50.944;5.382;2022-07-01T00:23:34;9.68;;;4.93;;
43650;SDS011;29247;50.944;5.382;2022-07-01T00:26:01;5.35;;;3.75;;
43650;SDS011;29247;50.944;5.382;2022-07-01T00:28:29;7.68;;;5.13;;
43650;SDS011;29247;50.944;5.382;2022-07-01T00:30:55;7.50;;;4.07;;
43650;SDS011;29247;50.944;5.382;2022-07-01T00:35:53;6.75;;;3.60;;
43650;SDS011;29247;50.944;5.382;2022-07-01T00:38:19;8.48;;;4.90;;
43650;SDS011;29247;50.944;5.382;2022-07-01T00:40:50;8.55;;;4.93;;
43650;SDS011;29247;50.944;5.382;2022-07-01T00:43:19;7.72;;;4.07;;
43650;SDS011;29247;50.944;5.382;2022-07-01T00:45:49;7.90;;;4.03;;
43650;SDS011;29247;50.944;5.382;2022-07-01T00:48:18;8.48;;;3.97;;
43650;SDS011;29247;50.944;5.382;2022-07-01T00:50:46;7.15;;;4.10;;
43650;SDS011;29247;50.944;5.382;2022-07-01T00:53:14;8.40;;;3.95;;
43650;SDS011;29247;50.944;5.382;2022-07-01T00:58:10;6.25;;;3.53;;
43650;SDS011;29247;50.944;5.382;2022-07-01T01:00:41;9.68;;;4.40;;
43650;SDS011;29247;50.944;5.382;2022-07-01T01:03:07;6.38;;;3.75;;
43650;SDS011;29247;50.944;5.382;2022-07-01T01:05:36;3.97;;;2.88;;
43650;SDS011;29247;50.944;5.382;2022-07-01T01:08:06;5.45;;;3.47;;
43650;SDS011;29247;50.944;5.382;2022-07-01T01:10:38;10.10;;;3.30;;
43650;SDS011;29247;50.944;5.382;2022-07-01T01:13:05;7.53;;;3.38;;
43650;SDS011;29247;50.944;5.382;2022-07-01T01:15:33;5.97;;;3.15;;
43650;SDS011;29247;50.944;5.382;2022-07-01T01:18:04;4.68;;;3.00;;
43650;SDS011;29247;50.944;5.382;2022-07-01T01:20:39;6.88;;;3.55;;
43650;SDS011;29247;50.944;5.382;2022-07-01T01:23:07;6.72;;;2.88;;
43650;SDS011;29247;50.944;5.382;2022-07-01T01:25:34;6.60;;;3.15;;
43650;SDS011;29247;50.944;5.382;2022-07-01T01:28:04;5.05;;;2.67;;
43650;SDS011;29247;50.944;5.382;2022-07-01T01:30:32;6.30;;;2.65;;
43650;SDS011;29247;50.944;5.382;2022-07-01T01:33:03;4.28;;;3.00;;
43650;SDS011;29247;50.944;5.382;2022-07-01T01:35:29;2.90;;;2.17;;
43650;SDS011;29247;50.944;5.382;2022-07-01T01:37:56;5.63;;;2.17;;
43650;SDS011;29247;50.944;5.382;2022-07-01T01:40:22;4.55;;;1.90;;
43650;SDS011;29247;50.944;5.382;2022-07-01T01:42:48;2.55;;;1.88;;
43650;SDS011;29247;50.944;5.382;2022-07-01T01:45:13;3.08;;;2.33;;
43650;SDS011;29247;50.944;5.382;2022-07-01T01:47:39;4.68;;;2.15;;
43650;SDS011;29247;50.944;5.382;2022-07-01T01:50:06;4.60;;;2.10;;
43650;SDS011;29247;50.944;5.382;2022-07-01T01:52:42;2.40;;;2.00;;
43650;SDS011;29247;50.944;5.382;2022-07-01T01:55:10;3.58;;;1.48;;
43650;SDS011;29247;50.944;5.382;2022-07-01T01:57:36;2.65;;;1.80;;
43650;SDS011;29247;50.944;5.382;2022-07-01T02:00:03;6.03;;;1.80;;
43650;SDS011;29247;50.944;5.382;2022-07-01T02:02:33;2.53;;;1.67;;
43650;SDS011;29247;50.944;5.382;2022-07-01T02:05:01;2.70;;;1.80;;
43650;SDS011;29247;50.944;5.382;2022-07-01T02:07:31;2.70;;;1.85;;
43650;SDS011;29247;50.944;5.382;2022-07-01T02:10:03;3.38;;;1.95;;
43650;SDS011;29247;50.944;5.382;2022-07-01T02:12:29;2.72;;;1.90;;
43650;SDS011;29247;50.944;5.382;2022-07-01T02:14:55;4.82;;;2.08;;
43650;SDS011;29247;50.944;5.382;2022-07-01T02:17:21;2.40;;;1.73;;
43650;SDS011;29247;50.944;5.382;2022-07-01T02:19:47;3.20;;;1.67;;
43650;SDS011;29247;50.944;5.382;2022-07-01T02:22:13;3.70;;;2.28;;
43650;SDS011;29247;50.944;5.382;2022-07-01T02:24:43;5.93;;;2.50;;
43650;SDS011;29247;50.944;5.382;2022-07-01T02:27:12;5.03;;;2.10;;
43650;SDS011;29247;50.944;5.382;2022-07-01T02:29:39;4.60;;;2.10;;
43650;SDS011;29247;50.944;5.382;2022-07-01T02:32:07;5.45;;;2.00;;
43650;SDS011;29247;50.944;5.382;2022-07-01T02:34:32;3.70;;;1.83;;
43650;SDS011;29247;50.944;5.382;2022-07-01T02:37:00;3.67;;;2.00;;
43650;SDS011;29247;50.944;5.382;2022-07-01T02:39:26;2.20;;;1.70;;
43650;SDS011;29247;50.944;5.382;2022-07-01T02:41:52;4.00;;;2.10;;
43650;SDS011;29247;50.944;5.382;2022-07-01T02:44:36;2.03;;;1.92;;
43650;SDS011;29247;50.944;5.382;2022-07-01T02:47:01;7.70;;;2.22;;
43650;SDS011;29247;50.944;5.382;2022-07-01T02:49:27;2.55;;;1.80;;
43650;SDS011;29247;50.944;5.382;2022-07-01T02:51:58;4.07;;;2.20;;
43650;SDS011;29247;50.944;5.382;2022-07-01T02:54:26;4.70;;;2.42;;
43650;SDS011;29247;50.944;5.382;2022-07-01T02:56:51;2.70;;;2.30;;
43650;SDS011;29247;50.944;5.382;2022-07-01T02:59:22;2.45;;;1.98;;
43650;SDS011;29247;50.944;5.382;2022-07-01T03:01:47;3.40;;;2.63;;
43650;SDS011;29247;50.944;5.382;2022-07-01T03:04:13;4.03;;;2.25;;
43650;SDS011;29247;50.944;5.382;2022-07-01T03:06:41;4.70;;;1.80;;
43650;SDS011;29247;50.944;5.382;2022-07-01T03:09:07;3.88;;;2.30;;
43650;SDS011;29247;50.944;5.382;2022-07-01T03:11:33;3.60;;;2.08;;
43650;SDS011;29247;50.944;5.382;2022-07-01T03:14:01;3.50;;;2.38;;
43650;SDS011;29247;50.944;5.382;2022-07-01T03:16:29;4.90;;;2.08;;
43650;SDS011;29247;50.944;5.382;2022-07-01T03:18:55;3.30;;;2.17;;
43650;SDS011;29247;50.944;5.382;2022-07-01T03:21:22;3.08;;;2.00;;
43650;SDS011;29247;50.944;5.382;2022-07-01T03:23:48;3.10;;;2.15;;
43650;SDS011;29247;50.944;5.382;2022-07-01T03:26:14;3.22;;;2.08;;
43650;SDS011;29247;50.944;5.382;2022-07-01T03:28:40;3.28;;;1.95;;
43650;SDS011;29247;50.944;5.382;2022-07-01T03:31:11;10.00;;;2.63;;
43650;SDS011;29247;50.944;5.382;2022-07-01T03:33:37;3.83;;;2.08;;
43650;SDS011;29247;50.944;5.382;2022-07-01T03:36:04;8.48;;;1.90;;
43650;SDS011;29247;50.944;5.382;2022-07-01T03:38:34;3.53;;;2.45;;
43650;SDS011;29247;50.944;5.382;2022-07-01T03:41:01;4.32;;;2.25;;
43650;SDS011;29247;50.944;5.382;2022-07-01T03:43:30;6.00;;;2.20;;
43650;SDS011;29247;50.944;5.382;2022-07-01T03:45:58;3.33;;;1.98;;
43650;SDS011;29247;50.944;5.382;2022-07-01T03:48:24;5.70;;;2.33;;
43650;SDS011;29247;50.944;5.382;2022-07-01T03:50:50;3.63;;;2.63;;
43650;SDS011;29247;50.944;5.382;2022-07-01T03:53:16;5.72;;;2.55;;
43650;SDS011;29247;50.944;5.382;2022-07-01T03:56:00;4.32;;;2.25;;
43650;SDS011;29247;50.944;5.382;2022-07-01T03:58:26;3.05;;;2.30;;
43650;SDS011;29247;50.944;5.382;2022-07-01T04:00:52;4.30;;;2.42;;
43650;SDS011;29247;50.944;5.382;2022-07-01T04:03:17;2.50;;;2.03;;
43650;SDS011;29247;50.944;5.382;2022-07-01T04:05:43;4.82;;;2.60;;
43650;SDS011;29247;50.944;5.382;2022-07-01T04:08:11;6.45;;;2.20;;
43650;SDS011;29247;50.944;5.382;2022-07-01T04:10:37;4.60;;;2.22;;
43650;SDS011;29247;50.944;5.382;2022-07-01T04:13:06;4.32;;;2.65;;
43650;SDS011;29247;50.944;5.382;2022-07-01T04:15:35;8.82;;;2.53;;
43650;SDS011;29247;50.944;5.382;2022-07-01T04:18:04;4.13;;;2.38;;
43650;SDS011;29247;50.944;5.382;2022-07-01T04:20:30;7.22;;;2.72;;
43650;SDS011;29247;50.944;5.382;2022-07-01T04:22:57;4.30;;;2.47;;
43650;SDS011;29247;50.944;5.382;2022-07-01T04:25:25;4.47;;;2.30;;
43650;SDS011;29247;50.944;5.382;2022-07-01T04:27:54;3.70;;;2.80;;
43650;SDS011;29247;50.944;5.382;2022-07-01T04:30:23;4.28;;;2.05;;
43650;SDS011;29247;50.944;5.382;2022-07-01T04:32:53;4.18;;;2.33;;
43650;SDS011;29247;50.944;5.382;2022-07-01T04:35:24;3.92;;;2.38;;
43650;SDS011;29247;50.944;5.382;2022-07-01T04:37:52;5.20;;;2.22;;
43650;SDS011;29247;50.944;5.382;2022-07-01T04:40:23;6.05;;;2.35;;
43650;SDS011;29247;50.944;5.382;2022-07-01T04:42:51;6.22;;;2.55;;
43650;SDS011;29247;50.944;5.382;2022-07-01T04:45:17;3.85;;;2.30;;
43650;SDS011;29247;50.944;5.382;2022-07-01T04:47:47;7.97;;;3.10;;
43650;SDS011;29247;50.944;5.382;2022-07-01T04:50:13;4.57;;;2.55;;
43650;SDS011;29247;50.944;5.382;2022-07-01T04:52:38;6.38;;;2.70;;
43650;SDS011;29247;50.944;5.382;2022-07-01T04:55:04;3.38;;;2.25;;
43650;SDS011;29247;50.944;5.382;2022-07-01T04:57:31;3.33;;;2.53;;
43650;SDS011;29247;50.944;5.382;2022-07-01T04:59:57;6.93;;;2.95;;
43650;SDS011;29247;50.944;5.382;2022-07-01T05:02:22;6.22;;;2.35;;
43650;SDS011;29247;50.944;5.382;2022-07-01T05:04:50;7.00;;;3.08;;
43650;SDS011;29247;50.944;5.382;2022-07-01T05:07:18;7.82;;;2.95;;
43650;SDS011;29247;50.944;5.382;2022-07-01T05:09:54;6.28;;;2.35;;
43650;SDS011;29247;50.944;5.382;2022-07-01T05:12:20;10.23;;;2.72;;
43650;SDS011;29247;50.944;5.382;2022-07-01T05:14:52;4.20;;;2.97;;
43650;SDS011;29247;50.944;5.382;2022-07-01T05:17:23;8.57;;;2.47;;
43650;SDS011;29247;50.944;5.382;2022-07-01T05:20:08;5.85;;;2.35;;
43650;SDS011;29247;50.944;5.382;2022-07-01T05:22:53;5.10;;;2.53;;
43650;SDS011;29247;50.944;5.382;2022-07-01T05:25:19;4.65;;;2.97;;
43650;SDS011;29247;50.944;5.382;2022-07-01T05:27:44;5.82;;;2.40;;
43650;SDS011;29247;50.944;5.382;2022-07-01T05:30:10;4.40;;;2.53;;
43650;SDS011;29247;50.944;5.382;2022-07-01T05:32:37;5.53;;;2.60;;
43650;SDS011;29247;50.944;5.382;2022-07-01T05:35:02;3.95;;;2.35;;
43650;SDS011;29247;50.944;5.382;2022-07-01T05:37:30;4.65;;;2.40;;
43650;SDS011;29247;50.944;5.382;2022-07-01T05:39:56;6.40;;;2.72;;
43650;SDS011;29247;50.944;5.382;2022-07-01T05:42:22;5.78;;;2.78;;
43650;SDS011;29247;50.944;5.382;2022-07-01T05:44:50;7.18;;;2.50;;
43650;SDS011;29247;50.944;5.382;2022-07-01T05:47:18;6.28;;;2.97;;
43650;SDS011;29247;50.944;5.382;2022-07-01T05:49:44;4.63;;;2.92;;
43650;SDS011;29247;50.944;5.382;2022-07-01T05:52:10;11.35;;;3.20;;
43650;SDS011;29247;50.944;5.382;2022-07-01T05:54:36;11.13;;;2.53;;
43650;SDS011;29247;50.944;5.382;2022-07-01T05:57:02;11.85;;;2.63;;
43650;SDS011;29247;50.944;5.382;2022-07-01T05:59:28;5.60;;;3.28;;
43650;SDS011;29247;50.944;5.382;2022-07-01T06:01:56;12.82;;;3.25;;
43650;SDS011;29247;50.944;5.382;2022-07-01T06:04:22;4.78;;;2.60;;
43650;SDS011;29247;50.944;5.382;2022-07-01T06:06:50;6.40;;;3.15;;
43650;SDS011;29247;50.944;5.382;2022-07-01T06:09:16;4.82;;;2.83;;
43650;SDS011;29247;50.944;5.382;2022-07-01T06:11:45;4.78;;;2.50;;
43650;SDS011;29247;50.944;5.382;2022-07-01T06:14:11;4.75;;;2.65;;
43650;SDS011;29247;50.944;5.382;2022-07-01T06:16:39;9.00;;;2.72;;
43650;SDS011;29247;50.944;5.382;2022-07-01T06:19:07;6.05;;;2.97;;
43650;SDS011;29247;50.944;5.382;2022-07-01T06:21:33;7.45;;;2.60;;
43650;SDS011;29247;50.944;5.382;2022-07-01T06:24:01;4.43;;;1.80;;
43650;SDS011;29247;50.944;5.382;2022-07-01T06:26:28;9.95;;;2.30;;
43650;SDS011;29247;50.944;5.382;2022-07-01T06:28:56;8.20;;;2.30;;
43650;SDS011;29247;50.944;5.382;2022-07-01T06:31:27;8.68;;;2.03;;
43650;SDS011;29247;50.944;5.382;2022-07-01T06:33:53;5.80;;;2.10;;
43650;SDS011;29247;50.944;5.382;2022-07-01T06:36:23;3.72;;;1.90;;
43650;SDS011;29247;50.944;5.382;2022-07-01T06:38:49;6.15;;;2.97;;
43650;SDS011;29247;50.944;5.382;2022-07-01T06:41:15;7.10;;;1.92;;
43650;SDS011;29247;50.944;5.382;2022-07-01T06:43:54;8.20;;;1.55;;
43650;SDS011;29247;50.944;5.382;2022-07-01T06:46:20;7.60;;;2.22;;
43650;SDS011;29247;50.944;5.382;2022-07-01T06:48:47;4.25;;;1.70;;
43650;SDS011;29247;50.944;5.382;2022-07-01T06:51:17;4.07;;;2.13;;
43650;SDS011;29247;50.944;5.382;2022-07-01T06:53:42;4.38;;;2.22;;
43650;SDS011;29247;50.944;5.382;2022-07-01T06:56:12;4.00;;;1.73;;
43650;SDS011;29247;50.944;5.382;2022-07-01T06:58:39;4.85;;;1.60;;
43650;SDS011;29247;50.944;5.382;2022-07-01T07:01:10;6.72;;;1.67;;
43650;SDS011;29247;50.944;5.382;2022-07-01T07:03:39;7.50;;;1.50;;
43650;SDS011;29247;50.944;5.382;2022-07-01T07:06:05;2.90;;;1.85;;
43650;SDS011;29247;50.944;5.382;2022-07-01T07:08:33;2.85;;;1.38;;
43650;SDS011;29247;50.944;5.382;2022-07-01T07:11:00;7.47;;;1.50;;
43650;SDS011;29247;50.944;5.382;2022-07-01T07:13:25;1.65;;;1.10;;
43650;SDS011;29247;50.944;5.382;2022-07-01T07:15:51;3.22;;;1.23;;
43650;SDS011;29247;50.944;5.382;2022-07-01T07:18:19;1.50;;;1.10;;
43650;SDS011;29247;50.944;5.382;2022-07-01T07:20:44;4.70;;;1.27;;
43650;SDS011;29247;50.944;5.382;2022-07-01T07:23:12;2.90;;;1.08;;
43650;SDS011;29247;50.944;5.382;2022-07-01T07:25:39;3.55;;;1.73;;
43650;SDS011;29247;50.944;5.382;2022-07-01T07:28:07;5.25;;;1.05;;
43650;SDS011;29247;50.944;5.382;2022-07-01T07:30:37;1.90;;;1.00;;
43650;SDS011;29247;50.944;5.382;2022-07-01T07:33:03;3.28;;;1.30;;
43650;SDS011;29247;50.944;5.382;2022-07-01T07:35:31;1.95;;;1.00;;
43650;SDS011;29247;50.944;5.382;2022-07-01T07:37:57;1.75;;;0.90;;
43650;SDS011;29247;50.944;5.382;2022-07-01T07:40:25;2.97;;;0.98;;
43650;SDS011;29247;50.944;5.382;2022-07-01T07:42:51;2.03;;;0.90;;
43650;SDS011;29247;50.944;5.382;2022-07-01T07:45:21;1.92;;;0.88;;
43650;SDS011;29247;50.944;5.382;2022-07-01T07:47:47;3.03;;;1.02;;
43650;SDS011;29247;50.944;5.382;2022-07-01T07:50:19;1.95;;;1.05;;
43650;SDS011;29247;50.944;5.382;2022-07-01T07:52:46;2.50;;;1.00;;
43650;SDS011;29247;50.944;5.382;2022-07-01T07:55:11;2.55;;;1.00;;
43650;SDS011;29247;50.944;5.382;2022-07-01T07:57:39;1.63;;;0.77;;
43650;SDS011;29247;50.944;5.382;2022-07-01T08:00:08;1.33;;;1.02;;
43650;SDS011;29247;50.944;5.382;2022-07-01T08:02:36;2.38;;;1.10;;
43650;SDS011;29247;50.944;5.382;2022-07-01T08:05:02;1.98;;;1.15;;
43650;SDS011;29247;50.944;5.382;2022-07-01T08:07:28;2.85;;;1.02;;
43650;SDS011;29247;50.944;5.382;2022-07-01T08:09:54;2.13;;;0.80;;
43650;SDS011;29247;50.944;5.382;2022-07-01T08:12:24;2.90;;;1.00;;
43650;SDS011;29247;50.944;5.382;2022-07-01T08:14:54;1.00;;;0.70;;
43650;SDS011;29247;50.944;5.382;2022-07-01T08:17:19;2.95;;;0.90;;
43650;SDS011;29247;50.944;5.382;2022-07-01T08:19:45;2.30;;;0.80;;
43650;SDS011;29247;50.944;5.382;2022-07-01T08:22:13;3.75;;;0.80;;
43650;SDS011;29247;50.944;5.382;2022-07-01T08:27:09;2.72;;;1.23;;
43650;SDS011;29247;50.944;5.382;2022-07-01T08:29:37;4.82;;;0.90;;
43650;SDS011;29247;50.944;5.382;2022-07-01T08:32:08;3.17;;;0.80;;
43650;SDS011;29247;50.944;5.382;2022-07-01T08:34:36;3.10;;;0.90;;
43650;SDS011;29247;50.944;5.382;2022-07-01T08:37:06;3.60;;;0.95;;
43650;SDS011;29247;50.944;5.382;2022-07-01T08:39:32;2.05;;;1.20;;
43650;SDS011;29247;50.944;5.382;2022-07-01T08:41:58;3.40;;;0.80;;
43650;SDS011;29247;50.944;5.382;2022-07-01T08:44:23;2.08;;;0.90;;
43650;SDS011;29247;50.944;5.382;2022-07-01T08:46:52;2.17;;;0.70;;
43650;SDS011;29247;50.944;5.382;2022-07-01T08:49:19;3.95;;;0.73;;
43650;SDS011;29247;50.944;5.382;2022-07-01T08:51:51;2.25;;;0.70;;
43650;SDS011;29247;50.944;5.382;2022-07-01T08:54:17;1.48;;;0.95;;
43650;SDS011;29247;50.944;5.382;2022-07-01T08:56:45;3.15;;;0.80;;
43650;SDS011;29247;50.944;5.382;2022-07-01T09:01:46;2.95;;;0.60;;
43650;SDS011;29247;50.944;5.382;2022-07-01T09:04:19;1.58;;;0.70;;
43650;SDS011;29247;50.944;5.382;2022-07-01T09:06:45;1.85;;;0.70;;
43650;SDS011;29247;50.944;5.382;2022-07-01T09:09:15;1.38;;;0.68;;
43650;SDS011;29247;50.944;5.382;2022-07-01T09:11:45;2.28;;;0.95;;
43650;SDS011;29247;50.944;5.382;2022-07-01T09:14:11;3.42;;;0.90;;
43650;SDS011;29247;50.944;5.382;2022-07-01T09:16:46;3.28;;;0.70;;
43650;SDS011;29247;50.944;5.382;2022-07-01T09:19:20;1.65;;;0.68;;
43650;SDS011;29247;50.944;5.382;2022-07-01T09:26:55;1.17;;;0.52;;
43650;SDS011;29247;50.944;5.382;2022-07-01T09:29:27;2.78;;;0.80;;
43650;SDS011;29247;50.944;5.382;2022-07-01T09:31:56;2.22;;;0.80;;
43650;SDS011;29247;50.944;5.382;2022-07-01T09:34:26;2.17;;;0.70;;
43650;SDS011;29247;50.944;5.382;2022-07-01T09:36:53;0.80;;;0.60;;
43650;SDS011;29247;50.944;5.382;2022-07-01T09:39:19;0.90;;;0.60;;
43650;SDS011;29247;50.944;5.382;2022-07-01T09:41:53;2.10;;;1.25;;
43650;SDS011;29247;50.944;5.382;2022-07-01T09:44:20;1.95;;;0.90;;
43650;SDS011;29247;50.944;5.382;2022-07-01T09:46:56;1.90;;;0.60;;
43650;SDS011;29247;50.944;5.382;2022-07-01T09:49:23;1.63;;;0.75;;
43650;SDS011;29247;50.944;5.382;2022-07-01T09:51:50;4.80;;;1.08;;
43650;SDS011;29247;50.944;5.382;2022-07-01T09:54:19;3.30;;;0.70;;
43650;SDS011;29247;50.944;5.382;2022-07-01T09:56:47;2.35;;;0.80;;
43650;SDS011;29247;50.944;5.382;2022-07-01T09:59:12;2.45;;;0.80;;
43650;SDS011;29247;50.944;5.382;2022-07-01T10:01:39;4.22;;;0.93;;
43650;SDS011;29247;50.944;5.382;2022-07-01T10:04:09;2.08;;;1.08;;
43650;SDS011;29247;50.944;5.382;2022-07-01T10:06:48;2.15;;;0.77;;
43650;SDS011;29247;50.944;5.382;2022-07-01T10:12:32;1.95;;;0.90;;
43650;SDS011;29247;50.944;5.382;2022-07-01T10:15:02;1.88;;;0.80;;
43650;SDS011;29247;50.944;5.382;2022-07-01T10:17:37;1.80;;;0.90;;
43650;SDS011;29247;50.944;5.382;2022-07-01T10:22:38;1.53;;;0.80;;
43650;SDS011;29247;50.944;5.382;2022-07-01T10:36:09;1.88;;;0.70;;
43650;SDS011;29247;50.944;5.382;2022-07-01T10:39:09;2.03;;;0.88;;
43650;SDS011;29247;50.944;5.382;2022-07-01T10:44:20;1.75;;;0.90;;
43650;SDS011;29247;50.944;5.382;2022-07-01T10:46:48;3.70;;;1.25;;
43650;SDS011;29247;50.944;5.382;2022-07-01T10:50:04;2.40;;;0.90;;
43650;SDS011;29247;50.944;5.382;2022-07-01T10:52:11;4.13;;;1.00;;
43650;SDS011;29247;50.944;5.382;2022-07-01T11:02:14;1.88;;;0.70;;
43650;SDS011;29247;50.944;5.382;2022-07-01T11:04:43;1.40;;;0.80;;
43650;SDS011;29247;50.944;5.382;2022-07-01T11:07:14;1.45;;;0.60;;
43650;SDS011;29247;50.944;5.382;2022-07-01T11:12:08;1.63;;;1.00;;
43650;SDS011;29247;50.944;5.382;2022-07-01T11:14:37;2.55;;;0.98;;
43650;SDS011;29247;50.944;5.382;2022-07-01T11:19:31;1.15;;;0.70;;
43650;SDS011;29247;50.944;5.382;2022-07-01T11:21:57;1.08;;;0.70;;
43650;SDS011;29247;50.944;5.382;2022-07-01T11:24:27;2.15;;;0.70;;
43650;SDS011;29247;50.944;5.382;2022-07-01T11:27:06;1.25;;;0.60;;
43650;SDS011;29247;50.944;5.382;2022-07-01T11:29:35;0.73;;;0.63;;
43650;SDS011;29247;50.944;5.382;2022-07-01T11:32:00;2.25;;;0.60;;
43650;SDS011;29247;50.944;5.382;2022-07-01T11:34:27;0.85;;;0.50;;
43650;SDS011;29247;50.944;5.382;2022-07-01T11:36:53;2.58;;;0.52;;
43650;SDS011;29247;50.944;5.382;2022-07-01T11:39:38;1.02;;;0.57;;
43650;SDS011;29247;50.944;5.382;2022-07-01T11:42:11;3.47;;;0.80;;
43650;SDS011;29247;50.944;5.382;2022-07-01T11:44:41;1.95;;;0.55;;
43650;SDS011;29247;50.944;5.382;2022-07-01T11:47:10;1.48;;;0.52;;
43650;SDS011;29247;50.944;5.382;2022-07-01T11:49:45;3.78;;;0.80;;
43650;SDS011;29247;50.944;5.382;2022-07-01T11:52:15;0.68;;;0.60;;
43650;SDS011;29247;50.944;5.382;2022-07-01T11:54:49;1.50;;;0.70;;
43650;SDS011;29247;50.944;5.382;2022-07-01T11:57:26;1.92;;;0.80;;
43650;SDS011;29247;50.944;5.382;2022-07-01T12:00:08;0.85;;;0.70;;
43650;SDS011;29247;50.944;5.382;2022-07-01T12:02:35;1.52;;;0.80;;
43650;SDS011;29247;50.944;5.382;2022-07-01T12:05:03;0.98;;;0.60;;
43650;SDS011;29247;50.944;5.382;2022-07-01T12:07:32;3.38;;;1.17;;
43650;SDS011;29247;50.944;5.382;2022-07-01T12:09:58;1.40;;;0.60;;
43650;SDS011;29247;50.944;5.382;2022-07-01T12:12:26;1.02;;;0.68;;
43650;SDS011;29247;50.944;5.382;2022-07-01T12:14:55;1.85;;;0.80;;
43650;SDS011;29247;50.944;5.382;2022-07-01T12:17:24;2.05;;;0.80;;
43650;SDS011;29247;50.944;5.382;2022-07-01T12:19:51;2.38;;;0.70;;
43650;SDS011;29247;50.944;5.382;2022-07-01T12:22:21;1.20;;;0.73;;
43650;SDS011;29247;50.944;5.382;2022-07-01T12:25:04;2.20;;;0.68;;
43650;SDS011;29247;50.944;5.382;2022-07-01T12:27:39;1.73;;;0.70;;
43650;SDS011;29247;50.944;5.382;2022-07-01T12:30:10;3.47;;;0.60;;
43650;SDS011;29247;50.944;5.382;2022-07-01T12:32:47;2.25;;;0.60;;
43650;SDS011;29247;50.944;5.382;2022-07-01T12:35:22;3.75;;;0.60;;
43650;SDS011;29247;50.944;5.382;2022-07-01T12:38:02;0.93;;;0.60;;
43650;SDS011;29247;50.944;5.382;2022-07-01T12:40:32;1.92;;;0.70;;
43650;SDS011;29247;50.944;5.382;2022-07-01T12:42:58;0.60;;;0.60;;
43650;SDS011;29247;50.944;5.382;2022-07-01T12:45:38;1.95;;;0.80;;
43650;SDS011;29247;50.944;5.382;2022-07-01T12:48:09;1.98;;;0.60;;
43650;SDS011;29247;50.944;5.382;2022-07-01T12:50:35;1.95;;;0.80;;
43650;SDS011;29247;50.944;5.382;2022-07-01T12:55:32;0.98;;;0.60;;
43650;SDS011;29247;50.944;5.382;2022-07-01T12:58:06;0.60;;;0.60;;
43650;SDS011;29247;50.944;5.382;2022-07-01T13:00:33;1.92;;;0.68;;
43650;SDS011;29247;50.944;5.382;2022-07-01T13:03:03;2.70;;;0.80;;
43650;SDS011;29247;50.944;5.382;2022-07-01T13:05:30;0.80;;;0.60;;
43650;SDS011;29247;50.944;5.382;2022-07-01T13:07:58;1.58;;;0.73;;
43650;SDS011;29247;50.944;5.382;2022-07-01T13:10:27;2.65;;;0.70;;
43650;SDS011;29247;50.944;5.382;2022-07-01T13:12:53;1.35;;;0.60;;
43650;SDS011;29247;50.944;5.382;2022-07-01T13:15:22;1.63;;;1.20;;
43650;SDS011;29247;50.944;5.382;2022-07-01T13:17:52;2.63;;;0.82;;
43650;SDS011;29247;50.944;5.382;2022-07-01T13:20:21;0.88;;;0.70;;
43650;SDS011;29247;50.944;5.382;2022-07-01T13:22:49;2.40;;;0.77;;
43650;SDS011;29247;50.944;5.382;2022-07-01T13:25:17;1.00;;;0.60;;
43650;SDS011;29247;50.944;5.382;2022-07-01T13:27:45;4.00;;;0.60;;
43650;SDS011;29247;50.944;5.382;2022-07-01T13:30:12;0.95;;;0.70;;
43650;SDS011;29247;50.944;5.382;2022-07-01T13:32:39;1.20;;;0.70;;
43650;SDS011;29247;50.944;5.382;2022-07-01T13:35:05;2.72;;;0.70;;
43650;SDS011;29247;50.944;5.382;2022-07-01T13:37:32;1.55;;;1.08;;
43650;SDS011;29247;50.944;5.382;2022-07-01T13:39:58;1.35;;;0.80;;
43650;SDS011;29247;50.944;5.382;2022-07-01T13:42:24;2.17;;;1.00;;
43650;SDS011;29247;50.944;5.382;2022-07-01T13:44:50;1.30;;;0.80;;
43650;SDS011;29247;50.944;5.382;2022-07-01T13:47:16;1.50;;;1.25;;
43650;SDS011;29247;50.944;5.382;2022-07-01T13:49:43;1.23;;;0.82;;
43650;SDS011;29247;50.944;5.382;2022-07-01T13:52:08;1.40;;;0.70;;
43650;SDS011;29247;50.944;5.382;2022-07-01T13:54:39;1.15;;;0.77;;
43650;SDS011;29247;50.944;5.382;2022-07-01T13:57:10;1.08;;;0.80;;
43650;SDS011;29247;50.944;5.382;2022-07-01T13:59:36;1.02;;;0.77;;
43650;SDS011;29247;50.944;5.382;2022-07-01T14:02:02;2.65;;;0.73;;
43650;SDS011;29247;50.944;5.382;2022-07-01T14:04:30;3.17;;;0.70;;
43650;SDS011;29247;50.944;5.382;2022-07-01T14:06:58;0.70;;;0.70;;
43650;SDS011;29247;50.944;5.382;2022-07-01T14:09:26;2.38;;;0.75;;
43650;SDS011;29247;50.944;5.382;2022-07-01T14:11:54;1.23;;;1.05;;
43650;SDS011;29247;50.944;5.382;2022-07-01T14:14:20;2.30;;;0.70;;
43650;SDS011;29247;50.944;5.382;2022-07-01T14:16:47;2.15;;;0.80;;
43650;SDS011;29247;50.944;5.382;2022-07-01T14:19:13;1.73;;;0.68;;
43650;SDS011;29247;50.944;5.382;2022-07-01T14:21:41;1.13;;;0.80;;
43650;SDS011;29247;50.944;5.382;2022-07-01T14:24:07;1.15;;;0.70;;
43650;SDS011;29247;50.944;5.382;2022-07-01T14:26:35;0.85;;;0.68;;
43650;SDS011;29247;50.944;5.382;2022-07-01T14:29:05;1.35;;;0.70;;
43650;SDS011;29247;50.944;5.382;2022-07-01T14:31:31;0.90;;;0.60;;
43650;SDS011;29247;50.944;5.382;2022-07-01T14:33:59;2.17;;;0.80;;
43650;SDS011;29247;50.944;5.382;2022-07-01T14:36:25;0.73;;;0.70;;
43650;SDS011;29247;50.944;5.382;2022-07-01T14:38:50;0.77;;;0.63;;
43650;SDS011;29247;50.944;5.382;2022-07-01T14:41:18;1.15;;;0.73;;
43650;SDS011;29247;50.944;5.382;2022-07-01T14:43:44;1.60;;;0.60;;
43650;SDS011;29247;50.944;5.382;2022-07-01T14:46:13;1.45;;;0.55;;
43650;SDS011;29247;50.944;5.382;2022-07-01T14:48:40;1.83;;;0.53;;
43650;SDS011;29247;50.944;5.382;2022-07-01T14:51:06;1.40;;;0.80;;
43650;SDS011;29247;50.944;5.382;2022-07-01T14:53:32;1.85;;;0.60;;
43650;SDS011;29247;50.944;5.382;2022-07-01T14:56:01;1.63;;;0.90;;
43650;SDS011;29247;50.944;5.382;2022-07-01T14:58:29;4.13;;;0.50;;
43650;SDS011;29247;50.944;5.382;2022-07-01T15:00:55;1.58;;;0.60;;
43650;SDS011;29247;50.944;5.382;2022-07-01T15:03:21;0.57;;;0.50;;
43650;SDS011;29247;50.944;5.382;2022-07-01T15:05:46;0.57;;;0.57;;
43650;SDS011;29247;50.944;5.382;2022-07-01T15:08:15;1.15;;;0.60;;
43650;SDS011;29247;50.944;5.382;2022-07-01T15:10:41;0.65;;;0.50;;
43650;SDS011;29247;50.944;5.382;2022-07-01T15:13:11;3.03;;;0.60;;
43650;SDS011;29247;50.944;5.382;2022-07-01T15:15:37;3.72;;;0.60;;
43650;SDS011;29247;50.944;5.382;2022-07-01T15:18:05;3.00;;;0.38;;
43650;SDS011;29247;50.944;5.382;2022-07-01T15:20:31;1.98;;;0.40;;
43650;SDS011;29247;50.944;5.382;2022-07-01T15:22:56;1.33;;;0.50;;
43650;SDS011;29247;50.944;5.382;2022-07-01T15:25:22;1.30;;;0.73;;
43650;SDS011;29247;50.944;5.382;2022-07-01T15:27:50;1.48;;;0.45;;
43650;SDS011;29247;50.944;5.382;2022-07-01T15:30:16;0.85;;;0.50;;
43650;SDS011;29247;50.944;5.382;2022-07-01T15:32:44;0.40;;;0.40;;
43650;SDS011;29247;50.944;5.382;2022-07-01T15:35:12;0.63;;;0.50;;
43650;SDS011;29247;50.944;5.382;2022-07-01T15:37:41;1.35;;;0.50;;
43650;SDS011;29247;50.944;5.382;2022-07-01T15:40:09;0.47;;;0.40;;
43650;SDS011;29247;50.944;5.382;2022-07-01T15:42:37;0.50;;;0.50;;
43650;SDS011;29247;50.944;5.382;2022-07-01T15:45:06;3.08;;;0.60;;